createdAt,value
2019-01-20T00:00:15.682Z,100499.09
2019-01-20T00:01:19.328Z,100502.70
2019-01-20T00:02:22.870Z,100496.72
2019-01-20T00:03:26.352Z,100498.96
2019-01-20T00:04:29.877Z,100508.23
2019-01-20T00:05:33.661Z,100504.69
2019-01-20T00:06:37.213Z,100507.73
2019-01-20T00:07:40.728Z,100511.04
2019-01-20T00:08:44.272Z,100509.42
2019-01-20T00:09:49.438Z,100507.55
2019-01-20T00:10:52.916Z,100503.16
2019-01-20T00:11:56.393Z,100505.09
2019-01-20T00:12:59.900Z,100508.14
2019-01-20T00:14:03.615Z,100500.48
2019-01-20T00:15:16.379Z,100504.65
2019-01-20T00:16:20.045Z,100499.48
2019-01-20T00:17:23.615Z,100503.03
2019-01-20T00:18:27.138Z,100500.60
2019-01-20T00:19:30.638Z,100503.65
2019-01-20T00:20:34.206Z,100503.15
2019-01-20T00:21:37.794Z,100505.89
2019-01-20T00:22:41.409Z,100497.98
2019-01-20T00:23:45.063Z,100508.13
2019-01-20T00:24:48.571Z,100506.75
2019-01-20T00:25:52.062Z,100497.42
2019-01-20T00:26:55.586Z,100500.47
2019-01-20T00:27:59.206Z,100503.77
2019-01-20T00:29:02.775Z,100504.88
2019-01-20T00:30:09.318Z,100504.63
2019-01-20T00:31:12.899Z,100503.27
2019-01-20T00:32:16.422Z,100500.83
2019-01-20T00:33:20.047Z,100500.58
2019-01-20T00:34:23.706Z,100503.06
2019-01-20T00:35:27.262Z,100500.33
2019-01-20T00:36:30.753Z,100496.28
2019-01-20T00:37:34.330Z,100492.17
2019-01-20T00:38:37.851Z,100497.40
2019-01-20T00:39:41.406Z,100496.59
2019-01-20T00:40:44.980Z,100501.01
2019-01-20T00:41:48.522Z,100496.90
2019-01-20T00:42:52.013Z,100494.44
2019-01-20T00:43:55.601Z,100496.67
2019-01-20T00:45:02.853Z,100501.59
2019-01-20T00:46:04.672Z,100496.42
2019-01-20T00:47:08.757Z,100493.44
2019-01-20T00:48:12.407Z,100497.54
2019-01-20T00:49:15.939Z,100490.75
2019-01-20T00:50:19.639Z,100496.79
2019-01-20T00:51:23.442Z,100496.79
2019-01-20T00:52:27.025Z,100495.42
2019-01-20T00:53:30.574Z,100491.93
2019-01-20T00:54:34.152Z,100492.19
2019-01-20T00:55:37.842Z,100493.30
2019-01-20T00:56:41.406Z,100491.93
2019-01-20T00:57:45.688Z,100486.20
2019-01-20T00:58:49.320Z,100494.41
2019-01-20T00:59:52.977Z,100487.07
2019-01-20T01:00:56.566Z,100493.66
2019-01-20T01:02:00.380Z,100490.09
2019-01-20T01:03:04.264Z,100488.77
2019-01-20T01:04:07.945Z,100493.12
2019-01-20T01:05:11.792Z,100492.88
2019-01-20T01:06:15.492Z,100494.55
2019-01-20T01:07:19.101Z,100489.64
2019-01-20T01:08:22.790Z,100493.74
2019-01-20T01:09:26.414Z,100495.98
2019-01-20T01:10:30.137Z,100497.34
2019-01-20T01:11:33.642Z,100497.09
2019-01-20T01:12:37.756Z,100496.03
2019-01-20T01:13:41.596Z,100494.97
2019-01-20T01:14:45.361Z,100497.15
2019-01-20T01:15:49.068Z,100491.98
2019-01-20T01:16:52.649Z,100496.64
2019-01-20T01:17:56.261Z,100492.03
2019-01-20T01:18:59.841Z,100499.13
2019-01-20T01:20:04.672Z,100495.30
2019-01-20T01:21:08.264Z,100492.31
2019-01-20T01:22:11.908Z,100497.78
2019-01-20T01:23:15.491Z,100497.53
2019-01-20T01:24:19.081Z,100491.81
2019-01-20T01:25:22.831Z,100500.02
2019-01-20T01:26:26.405Z,100500.32
2019-01-20T01:27:29.937Z,100503.88
2019-01-20T01:28:33.620Z,100497.34
2019-01-20T01:29:37.220Z,100502.86
2019-01-20T01:30:40.855Z,100500.63
2019-01-20T01:31:44.436Z,100502.55
2019-01-20T01:32:48.484Z,100502.30
2019-01-20T01:33:52.040Z,100497.95
2019-01-20T01:34:55.625Z,100502.86
2019-01-20T01:35:59.322Z,100505.59
2019-01-20T01:37:02.897Z,100506.16
2019-01-20T01:38:06.645Z,100505.09
2019-01-20T01:39:10.293Z,100507.02
2019-01-20T01:40:18.305Z,100509.75
2019-01-20T01:41:21.857Z,100506.20
2019-01-20T01:42:25.363Z,100512.23
2019-01-20T01:43:28.849Z,100505.70
2019-01-20T01:44:32.441Z,100513.91
2019-01-20T01:45:36.102Z,100515.27
2019-01-20T01:46:39.601Z,100513.38
2019-01-20T01:47:43.402Z,100513.38
2019-01-20T01:48:46.962Z,100516.97
2019-01-20T01:49:50.515Z,100513.12
2019-01-20T01:50:54.028Z,100511.50
2019-01-20T01:51:57.565Z,100513.42
2019-01-20T01:53:01.217Z,100510.99
2019-01-20T01:54:05.059Z,100512.36
2019-01-20T01:55:11.146Z,100510.73
2019-01-20T01:56:14.698Z,100512.11
2019-01-20T01:57:18.409Z,100511.05
2019-01-20T01:58:22.306Z,100517.08
2019-01-20T01:59:25.929Z,100518.44
2019-01-20T02:00:29.625Z,100507.86
2019-01-20T02:01:33.164Z,100516.01
2019-01-20T02:02:36.797Z,100510.84
2019-01-20T02:03:40.367Z,100509.48
2019-01-20T02:04:44.040Z,100506.73
2019-01-20T02:05:47.586Z,100505.67
2019-01-20T02:06:51.142Z,100514.13
2019-01-20T02:07:54.683Z,100511.70
2019-01-20T02:08:58.274Z,100508.72
2019-01-20T02:10:01.819Z,100511.20
2019-01-20T02:11:05.554Z,100513.94
2019-01-20T02:12:09.086Z,100522.66
2019-01-20T02:13:12.627Z,100515.58
2019-01-20T02:14:16.161Z,100518.31
2019-01-20T02:15:21.298Z,100521.60
2019-01-20T02:16:24.943Z,100518.61
2019-01-20T02:17:28.628Z,100524.08
2019-01-20T02:18:32.180Z,100519.47
2019-01-20T02:19:35.897Z,100519.73
2019-01-20T02:20:39.717Z,100520.28
2019-01-20T02:21:43.677Z,100515.12
2019-01-20T02:22:47.320Z,100519.22
2019-01-20T02:23:50.947Z,100513.75
2019-01-20T02:24:54.584Z,100515.42
2019-01-20T02:25:58.166Z,100512.98
2019-01-20T02:27:01.686Z,100515.17
2019-01-20T02:28:05.391Z,100511.11
2019-01-20T02:29:08.926Z,100519.83
2019-01-20T02:30:20.883Z,100516.84
2019-01-20T02:31:24.393Z,100517.45
2019-01-20T02:32:28.011Z,100517.95
2019-01-20T02:33:31.514Z,100516.33
2019-01-20T02:34:35.024Z,100518.51
2019-01-20T02:35:38.764Z,100524.28
2019-01-20T02:36:42.330Z,100520.98
2019-01-20T02:37:45.885Z,100522.36
2019-01-20T02:38:49.507Z,100518.81
2019-01-20T02:39:53.016Z,100516.91
2019-01-20T02:40:56.529Z,100517.75
2019-01-20T02:42:00.108Z,100519.64
2019-01-20T02:43:03.647Z,100519.64
2019-01-20T02:44:07.212Z,100519.64
2019-01-20T02:45:13.034Z,100518.58
2019-01-20T02:46:16.619Z,100518.58
2019-01-20T02:47:20.096Z,100515.03
2019-01-20T02:48:23.615Z,100523.79
2019-01-20T02:49:27.135Z,100521.87
2019-01-20T02:50:30.702Z,100522.17
2019-01-20T02:51:34.287Z,100521.36
2019-01-20T02:52:37.767Z,100522.47
2019-01-20T02:53:41.272Z,100521.66
2019-01-20T02:54:44.789Z,100526.31
2019-01-20T02:55:48.354Z,100522.77
2019-01-20T02:56:51.932Z,100532.34
2019-01-20T02:57:55.452Z,100524.44
2019-01-20T02:58:59.031Z,100522.27
2019-01-20T03:00:03.166Z,100524.74
2019-01-20T03:01:06.842Z,100527.73
2019-01-20T03:02:10.540Z,100525.55
2019-01-20T03:03:14.040Z,100527.73
2019-01-20T03:04:17.652Z,100525.05
2019-01-20T03:05:21.906Z,100529.41
2019-01-20T03:06:25.415Z,100530.52
2019-01-20T03:07:28.929Z,100529.14
2019-01-20T03:08:32.504Z,100524.79
2019-01-20T03:09:36.096Z,100523.42
2019-01-20T03:10:39.717Z,100526.97
2019-01-20T03:11:43.221Z,100519.33
2019-01-20T03:12:46.867Z,100524.79
2019-01-20T03:13:50.409Z,100521.25
2019-01-20T03:14:53.992Z,100514.43
2019-01-20T03:15:57.497Z,100512.81
2019-01-20T03:17:00.993Z,100511.70
2019-01-20T03:18:04.994Z,100519.64
2019-01-20T03:19:08.651Z,100516.35
2019-01-20T03:20:17.551Z,100520.75
2019-01-20T03:21:21.054Z,100518.29
2019-01-20T03:22:24.560Z,100518.58
2019-01-20T03:24:30.694Z,100520.77
2019-01-20T03:25:34.373Z,100515.86
2019-01-20T03:26:38.019Z,100515.86
2019-01-20T03:27:41.668Z,100514.23
2019-01-20T03:28:45.254Z,100518.59
2019-01-20T03:29:48.766Z,100518.34
2019-01-20T03:30:52.297Z,100515.60
2019-01-20T03:31:55.883Z,100517.78
2019-01-20T03:32:59.526Z,100518.08
2019-01-20T03:34:03.095Z,100515.34
2019-01-20T03:35:08.040Z,100513.98
2019-01-20T03:36:11.569Z,100517.27
2019-01-20T03:37:15.145Z,100510.73
2019-01-20T03:38:18.650Z,100517.83
2019-01-20T03:39:22.227Z,100511.50
2019-01-20T03:40:25.798Z,100516.37
2019-01-20T03:42:32.081Z,100514.36
2019-01-20T03:43:35.742Z,100509.10
2019-01-20T03:44:39.374Z,100516.38
2019-01-20T03:45:42.844Z,100514.10
2019-01-20T03:46:46.442Z,100510.16
2019-01-20T03:47:50.076Z,100510.03
2019-01-20T03:48:53.565Z,100516.47
2019-01-20T03:49:57.079Z,100510.36
2019-01-20T03:51:00.677Z,100511.58
2019-01-20T03:52:04.511Z,100507.90
2019-01-20T03:53:08.041Z,100510.78
2019-01-20T03:54:11.591Z,100503.57
2019-01-20T03:55:17.053Z,100510.84
2019-01-20T03:56:20.624Z,100508.74
2019-01-20T03:57:24.300Z,100506.42
2019-01-20T03:58:27.963Z,100503.20
2019-01-20T03:59:31.561Z,100511.49
2019-01-20T04:00:35.158Z,100511.04
2019-01-20T04:01:38.735Z,100510.05
2019-01-20T04:02:42.475Z,100505.47
2019-01-20T04:03:46.076Z,100504.97
2019-01-20T04:04:49.627Z,100510.66
2019-01-20T04:05:53.245Z,100506.95
2019-01-20T04:06:56.819Z,100508.08
2019-01-20T04:08:00.481Z,100507.39
2019-01-20T04:09:06.545Z,100505.00
2019-01-20T04:10:13.394Z,100504.16
2019-01-20T04:11:16.889Z,100505.67
2019-01-20T04:12:21.071Z,100506.09
2019-01-20T04:13:24.682Z,100508.02
2019-01-20T04:14:28.259Z,100506.02
2019-01-20T04:15:31.816Z,100500.88
2019-01-20T04:16:35.400Z,100502.62
2019-01-20T04:17:38.979Z,100506.34
2019-01-20T04:18:42.541Z,100504.28
2019-01-20T04:19:46.046Z,100503.65
2019-01-20T04:20:49.626Z,100501.16
2019-01-20T04:21:53.209Z,100501.36
2019-01-20T04:22:56.736Z,100496.28
2019-01-20T04:24:00.324Z,100499.64
2019-01-20T04:25:05.006Z,100496.25
2019-01-20T04:26:08.557Z,100496.81
2019-01-20T04:27:12.056Z,100491.45
2019-01-20T04:28:15.656Z,100493.95
2019-01-20T04:29:19.206Z,100498.47
2019-01-20T04:30:22.702Z,100492.73
2019-01-20T04:31:26.211Z,100496.28
2019-01-20T04:32:29.763Z,100496.28
2019-01-20T04:33:33.326Z,100489.25
2019-01-20T04:34:36.807Z,100490.99
2019-01-20T04:35:40.305Z,100495.50
2019-01-20T04:36:43.813Z,100497.27
2019-01-20T04:37:47.435Z,100499.77
2019-01-20T04:38:50.962Z,100499.77
2019-01-20T04:39:54.581Z,100497.20
2019-01-20T04:40:58.045Z,100501.31
2019-01-20T04:42:01.614Z,100499.94
2019-01-20T04:43:05.276Z,100501.13
2019-01-20T04:44:08.895Z,100496.53
2019-01-20T04:45:14.233Z,100492.33
2019-01-20T04:46:17.779Z,100496.38
2019-01-20T04:47:21.360Z,100496.25
2019-01-20T04:48:24.865Z,100496.25
2019-01-20T04:49:28.374Z,100497.38
2019-01-20T04:50:31.949Z,100495.13
2019-01-20T04:51:35.568Z,100497.45
2019-01-20T04:52:39.112Z,100496.89
2019-01-20T04:53:42.777Z,100498.42
2019-01-20T04:54:46.304Z,100495.52
2019-01-20T04:55:49.808Z,100497.00
2019-01-20T04:56:53.383Z,100497.40
2019-01-20T04:57:56.922Z,100504.67
2019-01-20T04:59:00.451Z,100498.23
2019-01-20T05:00:06.318Z,100500.66
2019-01-20T05:01:09.908Z,100500.09
2019-01-20T05:02:13.480Z,100505.09
2019-01-20T05:03:17.023Z,100494.67
2019-01-20T05:04:20.604Z,100494.86
2019-01-20T05:05:24.699Z,100502.21
2019-01-20T05:06:28.313Z,100502.94
2019-01-20T05:07:32.077Z,100497.92
2019-01-20T05:08:35.700Z,100502.28
2019-01-20T05:09:39.384Z,100503.17
2019-01-20T05:10:43.228Z,100501.15
2019-01-20T05:11:46.778Z,100499.05
2019-01-20T05:12:50.397Z,100498.56
2019-01-20T05:13:53.924Z,100498.89
2019-01-20T05:14:57.578Z,100499.84
2019-01-20T05:16:01.302Z,100500.97
2019-01-20T05:17:05.023Z,100500.90
2019-01-20T05:18:08.611Z,100496.53
2019-01-20T05:19:12.190Z,100502.77
2019-01-20T05:20:17.417Z,100502.81
2019-01-20T05:21:21.007Z,100505.32
2019-01-20T05:22:24.579Z,100500.55
2019-01-20T05:23:28.098Z,100500.23
2019-01-20T05:24:31.705Z,100497.00
2019-01-20T05:25:35.282Z,100499.91
2019-01-20T05:26:39.157Z,100502.09
2019-01-20T05:27:42.853Z,100494.81
2019-01-20T05:28:46.445Z,100497.32
2019-01-20T05:29:50.230Z,100493.20
2019-01-20T05:30:53.841Z,100498.31
2019-01-20T05:31:57.449Z,100496.30
2019-01-20T05:33:01.038Z,100500.74
2019-01-20T05:34:04.658Z,100497.98
2019-01-20T05:35:09.795Z,100500.36
2019-01-20T05:36:13.501Z,100497.61
2019-01-20T05:37:17.003Z,100496.95
2019-01-20T05:38:20.575Z,100497.52
2019-01-20T05:39:24.132Z,100497.02
2019-01-20T05:40:27.614Z,100493.38
2019-01-20T05:41:31.125Z,100504.80
2019-01-20T05:42:34.685Z,100497.61
2019-01-20T05:43:38.207Z,100502.30
2019-01-20T05:44:41.721Z,100512.25
2019-01-20T05:45:45.210Z,100507.88
2019-01-20T05:46:48.740Z,100509.50
2019-01-20T05:47:52.381Z,100511.49
2019-01-20T05:48:55.883Z,100510.69
2019-01-20T05:49:59.373Z,100512.87
2019-01-20T05:51:02.857Z,100512.80
2019-01-20T05:52:06.463Z,100518.30
2019-01-20T05:53:09.942Z,100517.33
2019-01-20T05:54:13.495Z,100514.09
2019-01-20T05:55:17.059Z,100520.97
2019-01-20T05:56:20.631Z,100515.28
2019-01-20T05:57:24.137Z,100518.36
2019-01-20T05:58:27.639Z,100514.80
2019-01-20T05:59:31.128Z,100513.10
2019-01-20T06:00:35.243Z,100515.84
2019-01-20T06:01:38.727Z,100522.48
2019-01-20T06:02:42.382Z,100520.86
2019-01-20T06:03:45.942Z,100521.45
2019-01-20T06:04:49.433Z,100516.92
2019-01-20T06:05:52.988Z,100525.56
2019-01-20T06:06:56.488Z,100525.66
2019-01-20T06:08:00.063Z,100535.19
2019-01-20T06:09:05.137Z,100527.42
2019-01-20T06:10:11.473Z,100535.11
2019-01-20T06:11:14.956Z,100535.11
2019-01-20T06:12:18.557Z,100537.61
2019-01-20T06:13:22.148Z,100543.52
2019-01-20T06:14:25.636Z,100541.91
2019-01-20T06:15:29.197Z,100542.80
2019-01-20T06:16:32.808Z,100548.30
2019-01-20T06:17:36.311Z,100543.58
2019-01-20T06:18:39.822Z,100539.86
2019-01-20T06:19:43.310Z,100537.27
2019-01-20T06:20:46.809Z,100544.80
2019-01-20T06:21:50.302Z,100547.67
2019-01-20T06:22:53.809Z,100549.20
2019-01-20T06:23:57.359Z,100544.97
2019-01-20T06:25:00.844Z,100552.56
2019-01-20T06:26:04.585Z,100559.31
2019-01-20T06:27:08.085Z,100561.61
2019-01-20T06:28:11.679Z,100558.70
2019-01-20T06:29:15.189Z,100562.65
2019-01-20T06:30:24.594Z,100561.43
2019-01-20T06:31:28.087Z,100569.22
2019-01-20T06:32:31.589Z,100566.05
2019-01-20T06:33:35.171Z,100567.58
2019-01-20T06:34:38.653Z,100566.56
2019-01-20T06:35:42.144Z,100571.08
2019-01-20T06:36:45.646Z,100568.72
2019-01-20T06:37:49.134Z,100567.46
2019-01-20T06:38:52.648Z,100572.21
2019-01-20T06:39:56.391Z,100568.48
2019-01-20T06:40:59.957Z,100576.86
2019-01-20T06:42:03.530Z,100572.22
2019-01-20T06:43:07.091Z,100580.59
2019-01-20T06:44:10.678Z,100585.59
2019-01-20T06:45:15.198Z,100581.30
2019-01-20T06:46:18.702Z,100578.61
2019-01-20T06:47:22.267Z,100580.09
2019-01-20T06:48:25.759Z,100580.23
2019-01-20T06:49:29.354Z,100582.47
2019-01-20T06:50:32.933Z,100586.94
2019-01-20T06:51:36.447Z,100583.70
2019-01-20T06:52:40.008Z,100584.05
2019-01-20T06:53:43.509Z,100577.26
2019-01-20T06:54:47.032Z,100585.30
2019-01-20T06:55:50.606Z,100585.90
2019-01-20T06:56:54.336Z,100583.78
2019-01-20T06:57:58.006Z,100581.67
2019-01-20T06:59:01.775Z,100589.14
2019-01-20T07:00:08.596Z,100590.27
2019-01-20T07:01:12.154Z,100591.64
2019-01-20T07:02:15.635Z,100591.89
2019-01-20T07:03:20.411Z,100593.02
2019-01-20T07:04:24.079Z,100596.00
2019-01-20T07:05:27.731Z,100598.49
2019-01-20T07:06:31.325Z,100595.75
2019-01-20T07:07:34.890Z,100599.86
2019-01-20T07:08:38.802Z,100602.92
2019-01-20T07:09:42.294Z,100600.98
2019-01-20T07:10:45.774Z,100600.17
2019-01-20T07:11:49.413Z,100602.67
2019-01-20T07:12:53.086Z,100604.05
2019-01-20T07:13:56.731Z,100616.94
2019-01-20T07:15:01.926Z,100614.20
2019-01-20T07:16:05.807Z,100612.02
2019-01-20T07:17:09.457Z,100611.73
2019-01-20T07:18:13.137Z,100613.17
2019-01-20T07:19:16.816Z,100618.66
2019-01-20T07:20:20.449Z,100614.29
2019-01-20T07:21:24.205Z,100616.22
2019-01-20T07:22:27.759Z,100620.89
2019-01-20T07:23:31.330Z,100619.52
2019-01-20T07:24:34.844Z,100619.27
2019-01-20T07:25:38.347Z,100620.64
2019-01-20T07:26:41.956Z,100615.22
2019-01-20T07:27:45.432Z,100623.13
2019-01-20T07:28:49.025Z,100616.53
2019-01-20T07:29:52.514Z,100622.88
2019-01-20T07:30:56.069Z,100622.88
2019-01-20T07:31:59.607Z,100621.52
2019-01-20T07:33:04.973Z,100625.69
2019-01-20T07:34:08.480Z,100627.62
2019-01-20T07:35:12.978Z,100633.91
2019-01-20T07:36:16.453Z,100637.77
2019-01-20T07:37:19.992Z,100634.47
2019-01-20T07:38:23.500Z,100635.59
2019-01-20T07:39:26.978Z,100636.71
2019-01-20T07:40:30.842Z,100637.55
2019-01-20T07:41:34.506Z,100638.39
2019-01-20T07:42:38.214Z,100643.03
2019-01-20T07:43:42.066Z,100646.89
2019-01-20T07:44:45.853Z,100643.96
2019-01-20T07:45:49.360Z,100645.58
2019-01-20T07:46:52.871Z,100642.34
2019-01-20T07:47:56.421Z,100648.13
2019-01-20T07:48:59.967Z,100638.34
2019-01-20T07:50:05.229Z,100647.63
2019-01-20T07:51:08.773Z,100649.31
2019-01-20T07:52:12.443Z,100648.81
2019-01-20T07:53:15.992Z,100653.48
2019-01-20T07:54:19.507Z,100657.34
2019-01-20T07:55:23.255Z,100660.91
2019-01-20T07:56:26.743Z,100658.17
2019-01-20T07:57:30.283Z,100655.18
2019-01-20T07:58:33.799Z,100659.05
2019-01-20T07:59:37.410Z,100657.67
2019-01-20T08:00:40.899Z,100651.44
2019-01-20T08:01:44.476Z,100656.92
2019-01-20T08:02:48.072Z,100661.34
2019-01-20T08:03:51.584Z,100660.78
2019-01-20T08:04:55.115Z,100658.09
2019-01-20T08:05:58.702Z,100664.13
2019-01-20T08:07:02.211Z,100662.52
2019-01-20T08:08:06.022Z,100662.56
2019-01-20T08:09:09.797Z,100665.30
2019-01-20T08:10:21.304Z,100669.12
2019-01-20T08:11:24.827Z,100667.77
2019-01-20T08:12:28.402Z,100666.14
2019-01-20T08:13:32.006Z,100666.70
2019-01-20T08:14:35.611Z,100666.70
2019-01-20T08:15:39.110Z,100666.95
2019-01-20T08:16:42.750Z,100675.95
2019-01-20T08:17:46.451Z,100669.30
2019-01-20T08:18:50.017Z,100671.98
2019-01-20T08:19:53.506Z,100672.99
2019-01-20T08:20:57.077Z,100679.28
2019-01-20T08:22:00.684Z,100674.59
2019-01-20T08:23:04.648Z,100681.69
2019-01-20T08:24:08.183Z,100683.88
2019-01-20T08:25:13.785Z,100678.39
2019-01-20T08:26:17.388Z,100679.45
2019-01-20T08:27:21.079Z,100687.37
2019-01-20T08:28:24.716Z,100689.55
2019-01-20T08:29:28.466Z,100687.87
2019-01-20T08:30:32.140Z,100693.35
2019-01-20T08:31:35.765Z,100699.09
2019-01-20T08:32:39.328Z,100695.28
2019-01-20T08:33:42.823Z,100696.09
2019-01-20T08:34:46.314Z,100704.06
2019-01-20T08:35:50.050Z,100697.27
2019-01-20T08:36:53.562Z,100700.52
2019-01-20T08:37:57.131Z,100707.56
2019-01-20T08:39:00.641Z,100704.27
2019-01-20T08:40:06.938Z,100710.80
2019-01-20T08:41:10.530Z,100702.52
2019-01-20T08:42:14.110Z,100702.52
2019-01-20T08:43:17.637Z,100706.39
2019-01-20T08:44:23.088Z,100705.58
2019-01-20T08:45:47.524Z,100713.80
2019-01-20T08:46:52.763Z,100714.05
2019-01-20T08:47:59.111Z,100706.69
2019-01-20T08:49:02.738Z,100705.88
2019-01-20T08:50:09.165Z,100710.80
2019-01-20T08:51:13.210Z,100717.09
2019-01-20T08:52:16.787Z,100717.66
2019-01-20T08:53:20.372Z,100712.98
2019-01-20T08:54:23.853Z,100718.16
2019-01-20T08:55:27.398Z,100716.52
2019-01-20T08:56:30.934Z,100721.37
2019-01-20T08:57:34.671Z,100721.69
2019-01-20T08:58:38.202Z,100720.82
2019-01-20T08:59:41.765Z,100720.82
2019-01-20T09:00:45.236Z,100720.52
2019-01-20T09:01:48.737Z,100719.09
2019-01-20T09:02:52.243Z,100722.89
2019-01-20T09:03:55.877Z,100720.14
2019-01-20T09:04:59.394Z,100724.20
2019-01-20T09:06:02.873Z,100724.20
2019-01-20T09:07:06.518Z,100726.38
2019-01-20T09:08:10.225Z,100726.64
2019-01-20T09:09:13.699Z,100727.45
2019-01-20T09:10:23.019Z,100726.33
2019-01-20T09:11:26.574Z,100730.19
2019-01-20T09:12:30.849Z,100731.05
2019-01-20T09:13:39.627Z,100726.44
2019-01-20T09:14:39.865Z,100731.42
2019-01-20T09:15:43.503Z,100730.11
2019-01-20T09:16:47.015Z,100735.90
2019-01-20T09:17:50.535Z,100734.83
2019-01-20T09:18:54.075Z,100735.98
2019-01-20T09:19:57.555Z,100738.47
2019-01-20T09:21:01.118Z,100738.22
2019-01-20T09:22:04.958Z,100740.70
2019-01-20T09:23:08.538Z,100745.06
2019-01-20T09:24:12.038Z,100736.28
2019-01-20T09:25:15.777Z,100740.95
2019-01-20T09:26:19.265Z,100740.14
2019-01-20T09:27:22.762Z,100744.56
2019-01-20T09:28:26.295Z,100734.72
2019-01-20T09:29:29.777Z,100738.33
2019-01-20T09:30:33.431Z,100735.33
2019-01-20T09:31:37.003Z,100738.44
2019-01-20T09:32:40.511Z,100743.43
2019-01-20T09:33:44.031Z,100740.84
2019-01-20T09:34:47.515Z,100738.74
2019-01-20T09:35:51.090Z,100739.41
2019-01-20T09:36:54.671Z,100744.73
2019-01-20T09:37:58.260Z,100735.82
2019-01-20T09:39:01.845Z,100741.95
2019-01-20T09:40:07.892Z,100744.17
2019-01-20T09:41:11.397Z,100745.03
2019-01-20T09:42:14.912Z,100752.73
2019-01-20T09:43:18.423Z,100747.87
2019-01-20T09:44:22.073Z,100753.95
2019-01-20T09:45:31.359Z,100754.81
2019-01-20T09:46:35.065Z,100753.76
2019-01-20T09:47:38.717Z,100758.47
2019-01-20T09:48:42.427Z,100760.19
2019-01-20T09:49:45.918Z,100767.62
2019-01-20T09:50:51.493Z,100764.39
2019-01-20T09:51:54.817Z,100760.08
2019-01-20T09:52:58.436Z,100766.41
2019-01-20T09:54:01.955Z,100767.00
2019-01-20T09:55:08.516Z,100764.58
2019-01-20T09:56:12.076Z,100765.73
2019-01-20T09:57:15.714Z,100766.84
2019-01-20T09:58:19.407Z,100765.22
2019-01-20T09:59:23.076Z,100762.78
2019-01-20T10:00:29.338Z,100765.78
2019-01-20T10:01:32.901Z,100769.92
2019-01-20T10:02:36.404Z,100768.30
2019-01-20T10:03:39.903Z,100766.13
2019-01-20T10:04:43.499Z,100771.89
2019-01-20T10:05:47.009Z,100774.62
2019-01-20T10:06:50.574Z,100778.17
2019-01-20T10:07:54.283Z,100773.52
2019-01-20T10:08:57.835Z,100780.36
2019-01-20T10:10:01.353Z,100777.62
2019-01-20T10:11:05.182Z,100779.80
2019-01-20T10:12:08.800Z,100782.80
2019-01-20T10:13:12.308Z,100778.98
2019-01-20T10:14:15.893Z,100776.81
2019-01-20T10:15:19.539Z,100780.91
2019-01-20T10:16:23.096Z,100778.69
2019-01-20T10:17:26.726Z,100783.61
2019-01-20T10:18:30.378Z,100783.52
2019-01-20T10:19:33.873Z,100782.57
2019-01-20T10:20:37.467Z,100782.69
2019-01-20T10:21:41.059Z,100776.77
2019-01-20T10:22:44.570Z,100775.41
2019-01-20T10:23:48.063Z,100776.23
2019-01-20T10:24:51.603Z,100776.80
2019-01-20T10:25:55.210Z,100781.72
2019-01-20T10:26:58.722Z,100778.08
2019-01-20T10:28:02.342Z,100778.59
2019-01-20T10:29:05.914Z,100782.64
2019-01-20T10:30:21.131Z,100784.09
2019-01-20T10:31:24.655Z,100782.23
2019-01-20T10:32:28.228Z,100783.19
2019-01-20T10:33:31.735Z,100783.47
2019-01-20T10:34:35.442Z,100784.15
2019-01-20T10:35:43.383Z,100785.61
2019-01-20T10:36:46.991Z,100786.23
2019-01-20T10:37:50.807Z,100784.72
2019-01-20T10:38:54.301Z,100787.98
2019-01-20T10:39:57.791Z,100785.27
2019-01-20T10:41:01.490Z,100793.44
2019-01-20T10:42:05.545Z,100786.83
2019-01-20T10:43:09.284Z,100791.19
2019-01-20T10:44:12.816Z,100788.76
2019-01-20T10:45:16.372Z,100794.50
2019-01-20T10:46:19.868Z,100792.98
2019-01-20T10:47:23.414Z,100794.44
2019-01-20T10:48:26.970Z,100795.17
2019-01-20T10:49:30.531Z,100795.98
2019-01-20T10:50:34.094Z,100794.32
2019-01-20T10:51:37.653Z,100796.37
2019-01-20T10:52:41.244Z,100799.85
2019-01-20T10:53:44.813Z,100799.05
2019-01-20T10:54:48.312Z,100798.80
2019-01-20T10:55:51.869Z,100792.66
2019-01-20T10:56:55.436Z,100795.66
2019-01-20T10:57:59.098Z,100798.09
2019-01-20T10:59:02.745Z,100792.87
2019-01-20T11:00:09.360Z,100791.50
2019-01-20T11:01:12.935Z,100789.55
2019-01-20T11:02:16.476Z,100793.22
2019-01-20T11:03:20.308Z,100793.22
2019-01-20T11:04:24.428Z,100791.17
2019-01-20T11:05:30.518Z,100791.67
2019-01-20T11:06:33.537Z,100792.30
2019-01-20T11:07:37.698Z,100792.55
2019-01-20T11:08:43.764Z,100784.91
2019-01-20T11:09:46.993Z,100788.22
2019-01-20T11:10:52.210Z,100789.17
2019-01-20T11:11:55.825Z,100793.86
2019-01-20T11:12:59.503Z,100787.80
2019-01-20T11:14:09.399Z,100796.37
2019-01-20T11:15:13.792Z,100789.88
2019-01-20T11:16:17.380Z,100791.93
2019-01-20T11:17:20.961Z,100787.25
2019-01-20T11:18:24.779Z,100784.25
2019-01-20T11:19:28.363Z,100789.39
2019-01-20T11:20:31.985Z,100785.83
2019-01-20T11:21:35.544Z,100789.81
2019-01-20T11:22:39.408Z,100785.79
2019-01-20T11:23:43.086Z,100786.60
2019-01-20T11:24:46.611Z,100785.72
2019-01-20T11:25:50.099Z,100790.66
2019-01-20T11:26:53.682Z,100793.86
2019-01-20T11:27:57.345Z,100797.80
2019-01-20T11:29:00.983Z,100793.97
2019-01-20T11:30:07.380Z,100796.79
2019-01-20T11:31:10.935Z,100795.41
2019-01-20T11:32:14.561Z,100795.23
2019-01-20T11:33:19.543Z,100793.37
2019-01-20T11:34:23.021Z,100794.50
2019-01-20T11:35:26.550Z,100792.87
2019-01-20T11:36:30.329Z,100796.27
2019-01-20T11:37:38.626Z,100796.55
2019-01-20T11:38:42.234Z,100792.70
2019-01-20T11:39:45.796Z,100789.50
2019-01-20T11:40:50.629Z,100792.39
2019-01-20T11:41:54.101Z,100795.94
2019-01-20T11:42:57.840Z,100792.06
2019-01-20T11:44:01.618Z,100794.75
2019-01-20T11:45:11.221Z,100794.61
2019-01-20T11:46:14.819Z,100795.17
2019-01-20T11:47:18.335Z,100802.22
2019-01-20T11:48:21.972Z,100798.72
2019-01-20T11:49:25.566Z,100800.03
2019-01-20T11:50:30.010Z,100796.54
2019-01-20T11:51:33.711Z,100792.42
2019-01-20T11:52:37.343Z,100792.48
2019-01-20T11:53:40.961Z,100790.87
2019-01-20T11:54:44.462Z,100797.88
2019-01-20T11:55:48.045Z,100791.86
2019-01-20T11:56:51.557Z,100798.73
2019-01-20T11:57:55.306Z,100795.80
2019-01-20T11:58:58.794Z,100798.63
2019-01-20T12:00:02.349Z,100799.44
2019-01-20T12:01:05.932Z,100798.63
2019-01-20T12:02:09.590Z,100796.13
2019-01-20T12:03:13.130Z,100791.61
2019-01-20T12:04:16.655Z,100797.88
2019-01-20T12:05:20.951Z,100792.24
2019-01-20T12:06:24.611Z,100787.23
2019-01-20T12:07:28.139Z,100796.13
2019-01-20T12:08:31.619Z,100791.26
2019-01-20T12:09:35.181Z,100793.76
2019-01-20T12:10:38.815Z,100796.19